Tiempo atmosférico en la estación meteorológica de Xinzo De Limia, Ourense (600 m.)



Fecha
DESCASC
Temp. máxima en grados centígrados (hora)
DESCASC
Temp. mínima en grados centígrados (hora)
DESCASC
Temp. media en grados centígrados
DESCASC
Racha de viento máxima en m/sg (hora)
DESCASC
Velocidad máxima media en intervalos de 10 minutos(hora)
DESCASC
Precipitaciones diarias en mm
DESCASC
Precipitaciones de 00:00 a 06:00 en mm
DESCASC
Precipitaciones de 06:00 a 12:00 en mm
DESCASC
Precipitaciones de 12:00 a 18:00 en mm
DESCASC
Precipitaciones de 18:00 a 24:00 en mm
DESCASC
16-06-2019 25.4 (16:50) -0.6 (07:10) 12.4 7.78 (13:40) 4.44 (14:30) 0 0 0 0 0
15-06-2019 19.7 (17:30) 3 (07:50) 11.4 7.22 (16:40) 4.44 (19:00) 0 0 0 0 0
14-06-2019 17.5 (17:30) 0.2 (07:30) 8.9 13.06 (14:20) 4.72 (18:50) 0 0 0 0 0
13-06-2019 18.2 (18:20) 1.5 (00:00) 9.9 7.78 (14:50) 4.72 (14:30) 0 0 0 0 0
12-06-2019 16.7 (16:30) 3.3 (00:00) 10 8.33 (14:20) 4.72 (16:30) 0 0 0 0 0
11-06-2019 17 (17:20) 6.1 (00:00) 11.5 12.5 (15:30) 7.22 (11:30) 0 0 0 0 0
10-06-2019 18.7 (17:20) 1.1 (00:00) 9.9 8.89 (17:00) 5 (17:20) 0 0 0 0 0
09-06-2019 18.3 (17:20) 1.2 (00:00) 9.7 8.89 (18:40) 5.56 (18:50) 0 0 0 0 0
08-06-2019 18.3 (14:30) -0.6 (-00:0) 8.8 6.39 (15:20) 4.44 (15:20) 0 0 0 0 0
07-06-2019 15.2 (18:20) 4.2 (00:00) 9.7 8.89 (18:30) 5.28 (18:30) 2.2 0.5 1.7 0 0
06-06-2019 12.4 (19:30) 5.8 (00:00) 9.1 14.17 (13:00) 8.61 (12:20) 8.8 0 0 7.1 1.7
05-06-2019 15.5 (17:40) 5.8 (00:00) 10.7 10.56 (18:10) 5.83 (15:10) 0.7 0 0.3 0.4 0
04-06-2019 17.2 (17:00) 8 (00:00) 12.6 9.72 (17:50) 5.56 (17:30) 1.1 0 1.1 0 0
03-06-2019 22.6 (15:50) 11.1 (00:00) 16.9 8.89 (18:40) 4.72 (17:10) 0 0 0 0 0
02-06-2019 26 (15:10) 3.1 (00:00) 14.5 9.17 (16:10) 5 (13:40) 0 0 0 0 0
01-06-2019 30.4 (16:40) 7.9 (00:00) 19.1 9.44 (16:00) 4.44 (16:00) 0 0 0 0 0
31-05-2019 32 (18:00) 8.1 (00:00) 20.1 7.22 (12:50) 4.17 (12:50) 0 0 0 0 0
30-05-2019 29.4 (18:10) 8.9 (00:00) 19.1 7.78 (10:40) 5 (10:50) 0 0 0 0 0
29-05-2019 26.3 (18:50) 0.9 (00:00) 13.6 7.5 (10:10) 4.17 (19:10) 0 0 0 0 0
28-05-2019 20.6 (17:40) 4 (00:00) 12.3 10.56 (18:00) 6.11 (19:20) 0 0 0 0 0
27-05-2019 21 (17:10) 6.3 (00:00) 13.7 9.17 (13:50) 5.83 (12:20) 0 0 0 0 0
26-05-2019 24 (18:00) 1.8 (00:00) 12.9 9.17 (16:00) 5.83 (16:20) 0 0 0 0 0
25-05-2019 22.2 (18:10) 3.5 (00:00) 12.9 10.56 (16:20) 6.39 (16:20) 0 0 0 0 0
24-05-2019 18.1 (16:10) 4.6 (00:00) 11.4 11.39 (11:30) 7.78 (20:00) 0 0 0 0 0
23-05-2019 19.9 (17:50) 5.3 (00:00) 12.6 8.89 (19:00) 5.56 (19:00) 0 0 0 0 0
22-05-2019 25 (15:00) 3.8 (00:00) 14.4 7.78 (19:50) 3.89 (19:50) 0 0 0 0 0

Gráficas

Temp. máximas Temp. mínimas Temp. medias Precipitaciones Rachas de viento máximas Velocidades máximas media en intervalos de 10 minutos

Datos horarios

Fecha y hora oficial Temperatura (ºC) Velocidad del viento (km/h) Dirección del viento Racha (km/h) Dirección de racha Precipitación (mm) Presión (hPa) Tendencia (hPa) Humedad (%)
2019-06-20 23:00:00 11.7 6 Noroeste 17 Norte 0 -- -- 90
2019-06-20 22:00:00 12.6 9 Noroeste 16 Noroeste 0 -- -- 87
2019-06-20 21:00:00 15.1 9 Noroeste 24 Norte 0 -- -- 84
2019-06-20 20:00:00 14.7 9 Noroeste 14 Noroeste 0.1 -- -- 87
2019-06-20 19:00:00 14.9 4 Noroeste 26 Norte 1 -- -- 84
2019-06-20 18:00:00 16.7 13 Noroeste 26 Norte 0 -- -- 68
2019-06-20 17:00:00 17.9 16 Noroeste 28 Noroeste 0 -- -- 58
2019-06-20 16:00:00 20.4 12 Norte 22 Norte 0 -- -- 50
2019-06-20 15:00:00 20.3 9 Norte 18 Norte 0 -- -- 52
2019-06-20 14:00:00 20.4 7 Norte 17 Norte 0 -- -- 52
2019-06-20 13:00:00 19.6 6 Norte 14 Noroeste 0 -- -- 57
2019-06-20 12:00:00 16.8 3 Noroeste 11 Norte 0 -- -- 68
2019-06-20 11:00:00 15.2 4 Noroeste 13 Noroeste 0 -- -- 84
2019-06-20 10:00:00 13.2 8 Norte 11 Norte 0 -- -- 93
2019-06-20 09:00:00 12.6 5 Noroeste 9 Noroeste 0 -- -- 93
2019-06-20 08:00:00 11.6 0 Calma 5 Oeste 0 -- -- 93
2019-06-20 07:00:00 10.7 0 Calma 5 Oeste 0 -- -- 93
2019-06-20 06:00:00 10.7 0 Calma 5 Sudoeste 0 -- -- 93
2019-06-20 05:00:00 10.5 0 Calma 5 Sudoeste 0 -- -- 93
2019-06-20 04:00:00 10.2 0 Calma 4 Oeste 0 -- -- 92
2019-06-20 03:00:00 10.1 2 Sudoeste 8 Sur 0 -- -- 92
2019-06-20 02:00:00 11.2 3 Sudoeste 7 Oeste 0 -- -- 92
2019-06-20 01:00:00 10.9 0 Calma 4 Sudoeste 0 -- -- 90
2019-06-20 00:00:00 11.2 0 Calma 4 Sudoeste 0 -- -- 88
2019-06-19 23:00:00 12.2 3 Nordeste 9 Norte 0 -- -- 85
2019-06-19 22:00:00 14.5 7 Norte 16 Norte 0 -- -- 80
2019-06-19 21:00:00 16 10 Norte 16 Norte 0 -- -- 75
2019-06-19 20:00:00 18.5 8 Noroeste 18 Noroeste 0 -- -- 60
2019-06-19 19:00:00 18.9 9 Oeste 23 Oeste 0 -- -- 63
2019-06-19 18:00:00 17.1 8 Oeste 20 Oeste 0 -- -- 64
2019-06-19 17:00:00 17.2 6 Oeste 21 Oeste 0 -- -- 63
2019-06-19 16:00:00 17.8 7 Oeste 27 Oeste 0 -- -- 60
2019-06-19 15:00:00 18.3 8 Oeste 28 Oeste 0.1 -- -- 57
2019-06-19 14:00:00 17.5 13 Oeste 24 Oeste 0 -- -- 58
2019-06-19 13:00:00 16.4 9 Oeste 23 Oeste 0 -- -- 68
2019-06-19 12:00:00 16.1 12 Oeste 27 Oeste 0 -- -- 76
2019-06-19 11:00:00 14.6 10 Oeste 19 Oeste 0 -- -- 91
2019-06-19 10:00:00 14 4 Oeste 18 Oeste 0 -- -- 93
2019-06-19 09:00:00 12.8 10 Oeste 18 Oeste 0 -- -- 93
2019-06-19 08:00:00 11.9 0 Calma 8 Este 0.4 -- -- 93
2019-06-19 07:00:00 11 0 Calma 5 Noroeste 0 -- -- 93
2019-06-19 06:00:00 10.2 2 Nordeste 6 Este 0 -- -- 92
2019-06-19 05:00:00 10.1 0 Calma 15 Sudeste 0 -- -- 92
2019-06-19 04:00:00 11.4 7 Sudeste 15 Sudeste 0 -- -- 92
2019-06-19 03:00:00 12.1 8 Sur 16 Sur 0 -- -- 92
2019-06-19 02:00:00 11.9 4 Sudoeste 15 Sur 0 -- -- 92
2019-06-19 01:00:00 12.6 4 Sudeste 6 Sudeste 0 -- -- 92
2019-06-19 00:00:00 12.8 0 Calma 8 Oeste 0 -- -- 92
2019-06-18 23:00:00 13 4 Oeste 18 Sudoeste 0 -- -- 91
2019-06-18 22:00:00 14 5 Oeste 18 Oeste 0 -- -- 91
2019-06-18 21:00:00 16.2 3 Oeste 19 Sudoeste 1.2 -- -- 91
2019-06-18 20:00:00 14.5 4 Sudoeste 20 Oeste 1.4 -- -- 91
2019-06-18 19:00:00 14.6 8 Oeste 20 Oeste 1.1 -- -- 89
2019-06-18 18:00:00 15.4 9 Sur 29 Sur 0.3 -- -- 84
2019-06-18 17:00:00 15.8 15 Sur 40 Sur 0 -- -- 77
2019-06-18 16:00:00 16 20 Sur 35 Sur 0 -- -- 67
2019-06-18 15:00:00 16.1 16 Sudeste 31 Sudeste 0 -- -- 68
2019-06-18 14:00:00 17.2 18 Sur 39 Sur 0 -- -- 64
2019-06-18 13:00:00 18.2 22 Sur 38 Sur 0 -- -- 62
2019-06-18 12:00:00 16.5 22 Sur 39 Sur 0 -- -- 62
2019-06-18 11:00:00 15.7 18 Sudeste 32 Sudeste 0 -- -- 68
2019-06-18 10:00:00 15.8 19 Sur 30 Sur 0 -- -- 66
2019-06-18 09:00:00 11.9 5 Noroeste 9 Oeste 0 -- -- 84
2019-06-18 08:00:00 9.4 2 Noroeste 11 Oeste 0 -- -- 92
2019-06-18 07:00:00 7 2 Noroeste 8 Oeste 0 -- -- 92
2019-06-18 06:00:00 6.3 4 Noroeste 7 Oeste 0 -- -- 90
2019-06-18 05:00:00 7.1 5 Oeste 10 Oeste 0 -- -- 89
2019-06-18 04:00:00 7.3 0 Calma 7 Sudoeste 0 -- -- 87
2019-06-18 03:00:00 8.4 0 Calma 7 Oeste 0 -- -- 83
2019-06-18 02:00:00 9.6 0 Calma 7 Oeste 0 -- -- 76
2019-06-18 01:00:00 12 4 Sudoeste 10 Oeste 0 -- -- 66
2019-06-18 00:00:00 14.3 3 Oeste 19 Sudeste 0 -- -- 47
2019-06-17 23:00:00 14.9 4 Sur 18 Sudeste 0 -- -- 46
2019-06-17 22:00:00 17.3 14 Sudeste 25 Sudeste 0 -- -- 39
2019-06-17 21:00:00 20.4 10 Sudeste 20 Sudeste 0 -- -- 33
2019-06-17 20:00:00 21.3 9 Sur 21 Sur 0 -- -- 32
2019-06-17 19:00:00 19.7 2 Oeste 12 Oeste 0 -- -- 39
2019-06-17 18:00:00 20.5 6 Oeste 17 Oeste 0 -- -- 37
2019-06-17 17:00:00 21.5 6 Oeste 16 Oeste 0 -- -- 37
2019-06-17 16:00:00 19.1 5 Oeste 15 Oeste 0 -- -- 44
2019-06-17 15:00:00 20.8 0 Calma 20 Oeste 0 -- -- 40
2019-06-17 14:00:00 21.5 6 Sudoeste 27 Sudoeste 0 -- -- 37
2019-06-17 13:00:00 22.6 14 Sudeste 27 Sudeste 0 -- -- 36
2019-06-17 12:00:00 21.5 15 Sudeste 30 Este 0 -- -- 50
2019-06-17 11:00:00 19.2 14 Sudeste 27 Sudeste 0 -- -- 60
2019-06-17 10:00:00 13.3 2 Sur 8 Sur 0 -- -- 90
2019-06-17 09:00:00 8.7 2 Oeste 8 Oeste 0 -- -- 93
2019-06-17 08:00:00 5.2 0 Calma 3 Noroeste 0 -- -- 93
2019-06-17 07:00:00 3.3 0 Calma 3 Oeste 0 -- -- 92
2019-06-17 06:00:00 4.9 0 Calma 3 Oeste 0 -- -- 91
2019-06-17 05:00:00 6.3 0 Calma 3 Sudoeste 0 -- -- 90
2019-06-17 04:00:00 8.1 0 Calma 7 Sudoeste 0 -- -- 89
2019-06-17 03:00:00 9.4 3 Sudoeste 7 Sudoeste 0 -- -- 87
2019-06-17 02:00:00 10.6 4 Sudoeste 9 Oeste 0 -- -- 84
2019-06-17 01:00:00 12.1 3 Sudoeste 12 Oeste 0 -- -- 79
2019-06-17 00:00:00 13.6 4 Oeste 9 Oeste 0 -- -- 74
2019-06-16 23:00:00 15.6 3 Oeste 12 Oeste 0 -- -- 65
2019-06-16 22:00:00 18.3 4 Oeste 14 Noroeste 0 -- -- 55
2019-06-16 21:00:00 21.9 10 Noroeste 17 Noroeste 0 -- -- 43
2019-06-16 20:00:00 23.4 12 Oeste 20 Oeste 0 -- -- 39
2019-06-16 19:00:00 24.6 13 Noroeste 24 Noroeste 0 -- -- 38
2019-06-16 18:00:00 25 11 Noroeste 22 Noroeste 0 -- -- 38
2019-06-16 17:00:00 23.6 14 Noroeste 26 Oeste 0 -- -- 38
2019-06-16 16:00:00 24.7 8 Este 26 Este 0 -- -- 32
2019-06-16 15:00:00 24.2 11 Este 27 Este 0 -- -- 33
2019-06-16 14:00:00 23.2 14 Sudeste 28 Sur 0 -- -- 35
2019-06-16 13:00:00 21.9 15 Sudeste 28 Sudeste 0 -- -- 40
2019-06-16 12:00:00 19.8 5 Sudeste 21 Sudeste 0 -- -- 52
2019-06-16 11:00:00 15.4 4 Nordeste 8 Nordeste 0 -- -- 76
2019-06-16 10:00:00 9.9 0 Calma 5 Nordeste 0 -- -- 94
2019-06-16 09:00:00 5.3 0 Calma 5 Nordeste 0 -- -- 94
2019-06-16 08:00:00 1 0 Calma -- -- 0 -- -- 94
2019-06-16 07:00:00 -0.5 0 Calma -- -- 0 -- -- 93
2019-06-16 06:00:00 0.5 0 Calma 0 Calma 0 -- -- 92
2019-06-16 05:00:00 2.1 0 Calma 6 Sur 0 -- -- 92
2019-06-16 04:00:00 4.3 2 Sudoeste 8 Sudoeste 0 -- -- 92
2019-06-16 03:00:00 5.1 4 Sudoeste 8 Sudoeste 0 -- -- 90
2019-06-16 02:00:00 5.5 2 Sudoeste 8 Sudoeste 0 -- -- 87
2019-06-16 01:00:00 6 3 Sudoeste 11 Nordeste 0 -- -- 83
2019-06-16 00:00:00 8.4 4 Sudoeste 8 Oeste 0 -- -- 76
2019-06-15 23:00:00 10.8 4 Noroeste 14 Noroeste 0 -- -- 68
2019-06-15 22:00:00 12.9 8 Oeste 16 Norte 0 -- -- 62
2019-06-15 21:00:00 15 10 Norte 22 Noroeste 0 -- -- 53
2019-06-15 20:00:00 17.2 13 Norte 23 Norte 0 -- -- 49
2019-06-15 19:00:00 18.2 16 Norte 24 Noroeste 0 -- -- 45
2019-06-15 18:00:00 19.1 10 Noroeste 23 Noroeste 0 -- -- 44
2019-06-15 17:00:00 18.7 6 Noroeste 26 Norte 0 -- -- 44
2019-06-15 16:00:00 17 12 Norte 24 Norte 0 -- -- 46
2019-06-15 15:00:00 16.2 8 Norte 24 Norte 0 -- -- 47
2019-06-15 14:00:00 16.4 9 Norte 20 Norte 0 -- -- 46
2019-06-15 13:00:00 15.6 5 Norte 17 Noroeste 0 -- -- 51
2019-06-15 12:00:00 15 6 Norte 16 Norte 0 -- -- 52
2019-06-15 11:00:00 14.2 3 Noroeste 12 Norte 0 -- -- 60
2019-06-15 10:00:00 12.2 2 Este 7 Este 0 -- -- 90
2019-06-15 09:00:00 8.3 2 Oeste 6 Oeste 0 -- -- 94
2019-06-15 08:00:00 3.2 0 Calma 3 Noroeste 0 -- -- 93
2019-06-15 07:00:00 3.5 0 Calma 4 Sudeste 0 -- -- 93
2019-06-15 06:00:00 4.3 3 Sudeste 5 Sudeste 0 -- -- 92
2019-06-15 05:00:00 4.6 0 Calma 3 Norte 0 -- -- 91
2019-06-15 04:00:00 6.4 0 Calma 5 Norte 0 -- -- 91
2019-06-15 03:00:00 6.3 0 Calma 4 Nordeste 0 -- -- 89
2019-06-15 02:00:00 7.2 2 Noroeste 9 Oeste 0 -- -- 89
2019-06-15 01:00:00 6.6 0 Calma 11 Noroeste 0 -- -- 85
2019-06-15 00:00:00 6.3 2 Noroeste 7 Norte 0 -- -- 76
2019-06-14 23:00:00 9.2 3 Oeste 16 Oeste 0 -- -- 71
2019-06-14 22:00:00 11.2 8 Oeste 20 Oeste 0 -- -- 64
2019-06-14 21:00:00 13.6 6 Sudoeste 20 Sudoeste 0 -- -- 57
2019-06-14 20:00:00 13.4 8 Oeste 25 Sudoeste 0 -- -- 55
2019-06-14 19:00:00 13.7 13 Oeste 30 Oeste 0 -- -- 54
2019-06-14 18:00:00 15.4 11 Oeste 31 Sudoeste 0 -- -- 50
2019-06-14 17:00:00 16.3 14 Oeste 34 Oeste 0 -- -- 51
2019-06-14 16:00:00 15.1 13 Oeste 25 Oeste 0 -- -- 49
2019-06-14 15:00:00 14 13 Noroeste 47 Oeste 0 -- -- 53
2019-06-14 14:00:00 15.3 10 Noroeste 21 Oeste 0 -- -- 49
2019-06-14 13:00:00 14.4 11 Oeste 20 Oeste 0 -- -- 54
2019-06-14 12:00:00 14.2 8 Norte 17 Sudoeste 0 -- -- 61
2019-06-14 11:00:00 12.7 5 Nordeste 11 Norte 0 -- -- 82
2019-06-14 10:00:00 9.1 3 Nordeste 7 Nordeste 0 -- -- 94
2019-06-14 09:00:00 4.9 0 Calma 4 Sudoeste 0 -- -- 94
2019-06-14 08:00:00 1.2 3 Este 5 Este 0 -- -- 94
2019-06-14 07:00:00 1 0 Calma 9 Sur 0 -- -- 93
2019-06-14 06:00:00 3 7 Sur 9 Sur 0 -- -- 93
2019-06-14 05:00:00 3.5 4 Sudoeste 6 Sudoeste 0 -- -- 92
2019-06-14 04:00:00 4.6 4 Sudoeste 9 Sur 0 -- -- 91
2019-06-14 03:00:00 4.9 4 Sudoeste 8 Oeste 0 -- -- 88
2019-06-14 02:00:00 6.5 5 Sudoeste 7 Sudoeste 0 -- -- 84
2019-06-14 01:00:00 8.3 0 Calma 7 Oeste 0 -- -- 81
2019-06-14 00:00:00 8.4 5 Oeste 10 Noroeste 0 -- -- 77
2019-06-13 23:00:00 8.8 6 Noroeste 14 Noroeste 0 -- -- 70
2019-06-13 22:00:00 11.1 7 Noroeste 17 Noroeste 0 -- -- 59
2019-06-13 21:00:00 14 11 Noroeste 20 Noroeste 0 -- -- 50
2019-06-13 20:00:00 15.9 15 Noroeste 25 Noroeste 0 -- -- 44
2019-06-13 19:00:00 16.5 17 Noroeste 28 Oeste 0 -- -- 41
2019-06-13 18:00:00 17.4 13 Noroeste 22 Noroeste 0 -- -- 40
2019-06-13 17:00:00 16.9 10 Noroeste 24 Noroeste 0 -- -- 41
2019-06-13 16:00:00 16.3 12 Oeste 28 Noroeste 0 -- -- 41
2019-06-13 15:00:00 16.4 9 Noroeste 28 Noroeste 0 -- -- 42
2019-06-13 14:00:00 15.9 6 Sudoeste 20 Noroeste 0 -- -- 45
2019-06-13 13:00:00 13.5 7 Norte 18 Norte 0 -- -- 55
2019-06-13 12:00:00 11.8 9 Norte 15 Norte 0 -- -- 62
2019-06-13 11:00:00 12 0 Calma 12 Norte 0 -- -- 81
2019-06-13 10:00:00 -- -- -- -- -- -- -- -- --
2019-06-13 09:00:00 5.3 0 Calma 3 Oeste 0 -- -- 94
2019-06-13 08:00:00 2.7 0 Calma 3 Este 0 -- -- 94
2019-06-13 07:00:00 1.6 0 Calma 0 Calma 0 -- -- 93
2019-06-13 06:00:00 1.9 0 Calma 5 Sudoeste 0 -- -- 92
2019-06-13 05:00:00 3.1 0 Calma 6 Sudoeste 0 -- -- 92
2019-06-13 04:00:00 4 3 Sudoeste 8 Sudoeste 0 -- -- 90
2019-06-13 03:00:00 5 3 Sudoeste 7 Oeste 0 -- -- 87
2019-06-13 02:00:00 6.8 2 Oeste 10 Oeste 0 -- -- 84
2019-06-13 01:00:00 7.6 5 Oeste 12 Noroeste 0 -- -- 81
2019-06-13 00:00:00 8.2 9 Noroeste 17 Noroeste 0 -- -- 79
2019-06-12 23:00:00 8.4 9 Noroeste 14 Noroeste 0 -- -- 72
2019-06-12 22:00:00 10.7 7 Noroeste 19 Noroeste 0 -- -- 55
2019-06-12 21:00:00 12.9 12 Norte 23 Norte 0 -- -- 48
2019-06-12 20:00:00 14.9 12 Noroeste 23 Norte 0 -- -- 44
2019-06-12 19:00:00 15.4 14 Norte 26 Norte 0 -- -- 44
2019-06-12 18:00:00 16.5 12 Norte 29 Noroeste 0 -- -- 42
2019-06-12 17:00:00 15.5 14 Norte 28 Noroeste 0 -- -- 41
2019-06-12 16:00:00 16.1 13 Norte 22 Norte 0 -- -- 41
2019-06-12 15:00:00 14.8 10 Norte 30 Norte 0 -- -- 43
2019-06-12 14:00:00 14.2 11 Norte 28 Norte 0 -- -- 45
2019-06-12 13:00:00 13.9 9 Norte 21 Noroeste 0 -- -- 48
2019-06-12 12:00:00 13.2 9 Norte 19 Noroeste 0 -- -- 55
2019-06-12 11:00:00 11.5 11 Norte 21 Noroeste 0 -- -- 64
2019-06-12 10:00:00 8.9 10 Norte 18 Norte 0 -- -- 81
2019-06-12 09:00:00 7.1 0 Calma 7 Oeste 0 -- -- 93
2019-06-12 08:00:00 4.4 0 Calma 8 Noroeste 0 -- -- 94
2019-06-12 07:00:00 3.3 0 Calma 10 Norte 0 -- -- 93
2019-06-12 06:00:00 3.6 7 Noroeste 10 Noroeste 0 -- -- 92
2019-06-12 05:00:00 4.4 6 Noroeste 18 Noroeste 0 -- -- 92
2019-06-12 04:00:00 5.1 10 Noroeste 19 Noroeste 0 -- -- 90
2019-06-12 03:00:00 5.3 8 Noroeste 15 Noroeste 0 -- -- 88
2019-06-12 02:00:00 5.1 4 Noroeste 12 Noroeste 0 -- -- 84
2019-06-12 01:00:00 5.8 3 Noroeste 14 Norte 0 -- -- 81
2019-06-12 00:00:00 7 8 Noroeste 19 Noroeste 0 -- -- 76
2019-06-11 23:00:00 8 9 Noroeste 20 Noroeste 0 -- -- 68
2019-06-11 22:00:00 10 10 Norte 30 Norte 0 -- -- 57
2019-06-11 21:00:00 12.6 16 Norte 35 Norte 0 -- -- 47
2019-06-11 20:00:00 14.4 20 Norte 32 Norte 0 -- -- 44
2019-06-11 19:00:00 15.8 18 Norte 33 Norte 0 -- -- 42
2019-06-11 18:00:00 14.5 22 Norte 38 Norte 0 -- -- 44
2019-06-11 17:00:00 16.8 19 Norte 37 Norte 0 -- -- 41
2019-06-11 16:00:00 15.7 19 Norte 45 Norte 0 -- -- 44
2019-06-11 15:00:00 15.2 23 Norte 38 Norte 0 -- -- 43
2019-06-11 14:00:00 12.8 21 Norte 38 Norte 0 -- -- 48
2019-06-11 13:00:00 12.7 19 Norte 35 Norte 0 -- -- 49
2019-06-11 12:00:00 12 17 Norte 43 Norte 0 -- -- 54
2019-06-11 11:00:00 10.2 22 Norte 35 Norte 0 -- -- 62
2019-06-11 10:00:00 8.6 19 Norte 29 Norte 0 -- -- 73
2019-06-11 09:00:00 7.6 16 Norte 27 Norte 0 -- -- 91
2019-06-11 08:00:00 7 14 Noroeste 22 Noroeste 0 -- -- 91
2019-06-11 07:00:00 6.3 14 Noroeste 23 Norte 0 -- -- 90
2019-06-11 06:00:00 6.9 15 Norte 26 Noroeste 0 -- -- 88
2019-06-11 05:00:00 7.3 7 Noroeste 13 Noroeste 0 -- -- 86
2019-06-11 04:00:00 7.4 4 Sudoeste 9 Oeste 0 -- -- 85
2019-06-11 03:00:00 7.7 0 Calma 19 Noroeste 0 -- -- 84
2019-06-11 02:00:00 8.4 13 Norte 29 Norte 0 -- -- 85
2019-06-11 01:00:00 8.9 14 Noroeste 24 Noroeste 0 -- -- 85
2019-06-11 00:00:00 10.5 12 Noroeste 23 Noroeste 0 -- -- 76
2019-06-10 23:00:00 11.4 7 Noroeste 24 Noroeste 0 -- -- 71
2019-06-10 22:00:00 12.4 13 Noroeste 25 Noroeste 0 -- -- 62
2019-06-10 21:00:00 13.6 15 Noroeste 26 Noroeste 0 -- -- 52
2019-06-10 20:00:00 14.8 12 Noroeste 26 Noroeste 0 -- -- 51
2019-06-10 19:00:00 16.1 14 Noroeste 26 Noroeste 0 -- -- 46
2019-06-10 18:00:00 17 13 Noroeste 28 Norte 0 -- -- 44
2019-06-10 17:00:00 17.9 17 Norte 32 Norte 0 -- -- 42
2019-06-10 16:00:00 17.7 11 Norte 24 Norte 0 -- -- 45
2019-06-10 15:00:00 16.6 11 Norte 26 Norte 0 -- -- 44
2019-06-10 14:00:00 15.6 13 Norte 26 Norte 0 -- -- 47
2019-06-10 13:00:00 15.3 11 Norte 23 Norte 0 -- -- 52
2019-06-10 12:00:00 13.9 8 Norte 18 Norte 0 -- -- 60
2019-06-10 11:00:00 11.6 9 Norte 17 Norte 0 -- -- 87
2019-06-10 10:00:00 8.9 3 Nordeste 8 Norte 0 -- -- 94
2019-06-10 09:00:00 6.4 0 Calma 0 Calma 0 -- -- 94
2019-06-10 08:00:00 4.5 0 Calma 2 Sudeste 0 -- -- 94
2019-06-10 07:00:00 1.1 0 Calma 6 Norte 0 -- -- 94
2019-06-10 06:00:00 2.2 0 Calma 3 Oeste 0 -- -- 93
2019-06-10 05:00:00 4.8 2 Sudoeste 7 Sudoeste 0 -- -- 93
2019-06-10 04:00:00 4 2 Sudeste 6 Sur 0 -- -- 92
2019-06-10 03:00:00 5.1 0 Calma 6 Noroeste 0 -- -- 90
2019-06-10 02:00:00 6.4 0 Calma 6 Noroeste 0 -- -- 88
2019-06-10 01:00:00 8.4 5 Oeste 19 Noroeste 0 -- -- 87
2019-06-10 00:00:00 9.5 9 Noroeste 20 Noroeste 0 -- -- 82
2019-06-09 23:00:00 10.3 12 Noroeste 18 Noroeste 0 -- -- 77
2019-06-09 22:00:00 11.5 12 Noroeste 16 Noroeste 0 -- -- 67
2019-06-09 21:00:00 13.7 6 Noroeste 22 Noroeste 0 -- -- 59
2019-06-09 20:00:00 16.4 18 Noroeste 31 Noroeste 0 -- -- 52
2019-06-09 19:00:00 17 19 Noroeste 32 Norte 0 -- -- 50
2019-06-09 18:00:00 17 15 Noroeste 26 Noroeste 0 -- -- 49
2019-06-09 17:00:00 17.4 17 Norte 29 Norte 0 -- -- 50
2019-06-09 16:00:00 15.5 16 Norte 27 Norte 0 -- -- 54
2019-06-09 15:00:00 16.7 8 Noroeste 30 Norte 0 -- -- 51
2019-06-09 14:00:00 16.5 15 Noroeste 27 Noroeste 0 -- -- 47
2019-06-09 13:00:00 15.4 14 Norte 21 Norte 0 -- -- 57
2019-06-09 12:00:00 13.4 4 Norte 14 Nordeste 0 -- -- 83
2019-06-09 11:00:00 10 0 Calma -- -- -- -- -- 95
2019-06-09 10:00:00 7.1 3 Noroeste 6 Noroeste 0 -- -- 94
2019-06-09 09:00:00 5.9 0 Calma 5 Sudoeste 0 -- -- 94
2019-06-09 08:00:00 4.7 2 Sur 5 Sudoeste 0 -- -- 94
2019-06-09 07:00:00 2.6 0 Calma 3 Oeste 0 -- -- 94
2019-06-09 06:00:00 1.2 0 Calma 3 Nordeste 0 -- -- 94
2019-06-09 05:00:00 2 0 Calma 3 Nordeste 0 -- -- 93
2019-06-09 04:00:00 3.8 0 Calma 5 Sudoeste 0 -- -- 92
2019-06-09 03:00:00 4.4 0 Calma 8 Sudoeste 0 -- -- 91
2019-06-09 02:00:00 5.9 5 Sudoeste 7 Sudoeste 0 -- -- 89
2019-06-09 01:00:00 7.6 3 Sudoeste 8 Oeste 0 -- -- 85
2019-06-09 00:00:00 8.9 3 Oeste 8 Noroeste 0 -- -- 79
2019-06-08 23:00:00 10 6 Oeste 13 Oeste 0 -- -- 71
2019-06-08 22:00:00 11.5 4 Noroeste 13 Norte 0 -- -- 61
2019-06-08 21:00:00 13.6 11 Noroeste 23 Noroeste 0 -- -- 54
2019-06-08 20:00:00 16.2 13 Noroeste 21 Noroeste 0 -- -- 49
2019-06-08 19:00:00 15.6 14 Noroeste 21 Norte 0 -- -- 50
2019-06-08 18:00:00 15.4 12 Norte 23 Norte 0 -- -- 50
2019-06-08 17:00:00 16.6 10 Noroeste 23 Norte 0 -- -- 49
2019-06-08 16:00:00 16.3 15 Norte 23 Norte 0 -- -- 52
2019-06-08 15:00:00 17.5 5 Nordeste 17 Sudeste 0 -- -- 40
2019-06-08 14:00:00 17.6 8 Este 19 Este 0 -- -- 41
2019-06-08 13:00:00 16.6 4 Este 15 Este 0 -- -- 52
2019-06-08 12:00:00 13.3 3 Nordeste 12 Nordeste 0 -- -- 65
2019-06-08 11:00:00 10.2 4 Nordeste 9 Nordeste 0 -- -- 88
2019-06-08 10:00:00 6.7 0 Calma 5 Oeste 0 -- -- 95
2019-06-08 09:00:00 4.2 2 Sudeste 6 Sur 0 -- -- 95
2019-06-08 08:00:00 1 2 Sur 7 Sur 0 -- -- 95
2019-06-08 07:00:00 0.1 2 Oeste 3 Oeste 0 -- -- 95
2019-06-08 06:00:00 -0.5 0 Calma 3 Sudoeste 0 -- -- 94
2019-06-08 05:00:00 0.3 0 Calma 7 Sudoeste 0 -- -- 94
2019-06-08 04:00:00 1.4 5 Sudoeste 9 Sudoeste 0 -- -- 92
2019-06-08 03:00:00 1.3 2 Sudoeste 6 Sudoeste 0 -- -- 91
2019-06-08 02:00:00 2.3 0 Calma 5 Oeste 0 -- -- 88
2019-06-08 01:00:00 3.4 0 Calma 5 Sudeste 0 -- -- 83
2019-06-08 00:00:00 5.9 3 Noroeste 15 Noroeste 0 -- -- 78
2019-06-07 23:00:00 6.7 2 Nordeste 13 Noroeste 0 -- -- 71
2019-06-07 22:00:00 9.4 9 Noroeste 21 Norte 0 -- -- 60
2019-06-07 21:00:00 12.3 13 Noroeste 27 Noroeste 0 -- -- 50
2019-06-07 20:00:00 13.6 16 Noroeste 30 Oeste 0 -- -- 48
2019-06-07 19:00:00 14.5 17 Noroeste 32 Noroeste 0 -- -- 46
2019-06-07 18:00:00 15 18 Noroeste 31 Noroeste 0 -- -- 49
2019-06-07 17:00:00 15.1 16 Oeste 27 Oeste 0 -- -- 49
2019-06-07 16:00:00 14.4 7 Oeste 24 Norte 0 -- -- 62
2019-06-07 15:00:00 12.4 12 Noroeste 24 Oeste 0 -- -- 62
2019-06-07 14:00:00 12.3 12 Noroeste 26 Oeste 0 -- -- 58
2019-06-07 13:00:00 11 7 Oeste 22 Oeste 0 -- -- 70
2019-06-07 12:00:00 9.9 8 Noroeste 17 Oeste 0 -- -- 79
2019-06-07 11:00:00 8.1 9 Oeste 16 Oeste 0.4 -- -- 90
2019-06-07 10:00:00 7.8 6 Noroeste 12 Oeste 0.2 -- -- 92
2019-06-07 09:00:00 7.2 0 Calma 7 Oeste 0 -- -- 94
2019-06-07 08:00:00 4.4 4 Noroeste 15 Oeste 0.1 -- -- 93
2019-06-07 07:00:00 4.8 11 Oeste 19 Oeste 1 -- -- 92
2019-06-07 06:00:00 4.6 10 Noroeste 16 Oeste 0.1 -- -- 90
2019-06-07 05:00:00 5.2 7 Oeste 24 Oeste 0 -- -- 89
2019-06-07 04:00:00 5.5 9 Oeste 29 Oeste 0 -- -- 90
2019-06-07 03:00:00 6 11 Noroeste 22 Noroeste 0 -- -- 92
2019-06-07 02:00:00 6.4 5 Oeste 18 Oeste 0.2 -- -- 93
2019-06-07 01:00:00 6.4 8 Oeste 24 Oeste 0.2 -- -- 92
2019-06-07 00:00:00 6.4 9 Oeste 24 Oeste 0.2 -- -- 92
2019-06-06 23:00:00 6.8 8 Oeste 32 Oeste 0.4 -- -- 90
2019-06-06 22:00:00 7.7 9 Oeste 28 Oeste 0 -- -- 87
2019-06-06 21:00:00 9.3 12 Oeste 38 Oeste 0 -- -- 82
2019-06-06 20:00:00 11.4 14 Oeste 45 Oeste 0 -- -- 72
2019-06-06 19:00:00 11.7 14 Sudoeste 35 Sudoeste 1.1 -- -- 91
2019-06-06 18:00:00 10 15 Sudoeste 46 Sur 3.1 -- -- 90
2019-06-06 17:00:00 11.2 22 Sur 42 Sudeste 2.8 -- -- 89
2019-06-06 16:00:00 11 12 Sur 38 Sudeste 1.2 -- -- 87
2019-06-06 15:00:00 9.9 18 Sudeste 45 Sudeste 0 -- -- 88
2019-06-06 14:00:00 9.6 22 Sudeste 51 Sudeste 0 -- -- 78
2019-06-06 13:00:00 10.9 28 Sudeste 51 Sudeste 0 -- -- 66
2019-06-06 12:00:00 11.8 27 Sur 44 Sudeste 0 -- -- 63
2019-06-06 11:00:00 10.9 24 Sudeste 45 Sudeste 0 -- -- 68
2019-06-06 10:00:00 8.9 19 Sudeste 37 Sudeste 0 -- -- 79
2019-06-06 09:00:00 8 16 Sudeste 29 Sudeste 0 -- -- 84
2019-06-06 08:00:00 6.9 15 Sudeste 26 Sudeste 0 -- -- 84
2019-06-06 07:00:00 6.3 11 Sudeste 19 Sudeste 0 -- -- 87
2019-06-06 06:00:00 6 10 Sudeste 16 Sudeste 0 -- -- 87
2019-06-06 05:00:00 6.1 7 Sudeste 13 Sudeste 0 -- -- 86
2019-06-06 04:00:00 5.8 4 Sudeste 11 Sudeste 0 -- -- 86
2019-06-06 03:00:00 6.4 4 Sur 9 Sudeste 0 -- -- 85
2019-06-06 02:00:00 6.5 3 Sur 9 Sur 0 -- -- 84
2019-06-06 01:00:00 6.9 3 Sudoeste 14 Sudoeste 0 -- -- 82
2019-06-06 00:00:00 6.9 4 Oeste 14 Oeste 0 -- -- 77
2019-06-05 23:00:00 8.1 3 Oeste 12 Oeste 0 -- -- 70
2019-06-05 22:00:00 9.1 6 Oeste 21 Oeste 0 -- -- 64
2019-06-05 21:00:00 10.6 10 Oeste 26 Norte 0 -- -- 57
2019-06-05 20:00:00 11.6 16 Noroeste 28 Noroeste 0 -- -- 51
2019-06-05 19:00:00 13.6 16 Noroeste 38 Oeste 0 -- -- 46
2019-06-05 18:00:00 13.8 19 Oeste 36 Oeste 0 -- -- 44
2019-06-05 17:00:00 14.6 19 Noroeste 38 Noroeste 0 -- -- 42
2019-06-05 16:00:00 14.6 19 Noroeste 35 Oeste 0 -- -- 46
2019-06-05 15:00:00 13.9 16 Noroeste 31 Norte 0 -- -- 55
2019-06-05 14:00:00 13.7 13 Noroeste 31 Noroeste 0 -- -- 57
2019-06-05 13:00:00 10.9 13 Oeste 29 Noroeste 0.4 -- -- 70
2019-06-05 12:00:00 9.9 6 Oeste 22 Oeste 0.3 -- -- 82
2019-06-05 11:00:00 9.3 12 Noroeste 23 Noroeste 0 -- -- 74
2019-06-05 10:00:00 9.2 12 Noroeste 21 Noroeste 0 -- -- 85
2019-06-05 09:00:00 8.4 9 Noroeste 17 Noroeste 0 -- -- 92
2019-06-05 08:00:00 6.9 7 Oeste 13 Noroeste 0 -- -- 92
2019-06-05 07:00:00 6.3 5 Oeste 12 Oeste 0 -- -- 92
2019-06-05 06:00:00 6.3 6 Oeste 13 Noroeste 0 -- -- 92
2019-06-05 05:00:00 6.3 7 Noroeste 14 Oeste 0 -- -- 91
2019-06-05 04:00:00 7.3 4 Oeste 17 Oeste 0 -- -- 91
2019-06-05 03:00:00 7.5 9 Oeste 17 Noroeste 0 -- -- 89
2019-06-05 02:00:00 8 6 Noroeste 17 Oeste 0 -- -- 88
2019-06-05 01:00:00 8 9 Noroeste 15 Noroeste 0 -- -- 86
2019-06-05 00:00:00 8.1 4 Noroeste 11 Noroeste 0 -- -- 82
2019-06-04 23:00:00 9.1 8 Noroeste 21 Oeste 0 -- -- 77
2019-06-04 22:00:00 9.5 9 Oeste 26 Noroeste 0 -- -- 73
2019-06-04 21:00:00 11.5 15 Noroeste 26 Oeste 0 -- -- 69
2019-06-04 20:00:00 12.4 18 Oeste 32 Oeste 0 -- -- 62
2019-06-04 19:00:00 14.6 18 Noroeste 31 Noroeste 0 -- -- 52
2019-06-04 18:00:00 16.6 18 Noroeste 35 Oeste 0 -- -- 44
2019-06-04 17:00:00 16.4 18 Noroeste 33 Noroeste 0 -- -- 44
2019-06-04 16:00:00 16.5 14 Noroeste 31 Oeste 0 -- -- 44
2019-06-04 15:00:00 15.8 15 Oeste 27 Oeste 0 -- -- 49
2019-06-04 14:00:00 14.3 15 Noroeste 28 Noroeste 0 -- -- 59
2019-06-04 13:00:00 13.2 12 Noroeste 27 Oeste 0 -- -- 82
2019-06-04 12:00:00 11.6 15 Noroeste 30 Noroeste 0.9 -- -- 91
2019-06-04 11:00:00 13 6 Sur 11 Sur 0.1 -- -- 90
2019-06-04 10:00:00 12.5 3 Oeste 11 Sudoeste 0.1 -- -- 86
2019-06-04 09:00:00 12.5 0 Calma 15 Oeste 0 -- -- 84
2019-06-04 08:00:00 11.7 5 Sudoeste 15 Norte 0 -- -- 83
2019-06-04 07:00:00 11.6 6 Sudoeste 17 Sudoeste 0 -- -- 81
2019-06-04 06:00:00 10.8 7 Sudeste 14 Sudeste 0 -- -- 78
2019-06-04 05:00:00 11 7 Sur 10 Sur 0 -- -- 81
2019-06-04 04:00:00 11.2 4 Sudeste 8 Sur 0 -- -- 84
2019-06-04 03:00:00 11.2 2 Sudoeste 22 Oeste 0 -- -- 84
2019-06-04 02:00:00 10.9 5 Sudoeste 24 Oeste 0 -- -- 84
2019-06-04 01:00:00 12 9 Oeste 23 Oeste 0 -- -- 86
2019-06-04 00:00:00 12.5 10 Oeste 23 Sudoeste 0 -- -- 86
2019-06-03 23:00:00 13.3 8 Oeste 19 Oeste 0 -- -- 81
2019-06-03 22:00:00 14.7 9 Oeste 23 Oeste 0 -- -- 71
2019-06-03 21:00:00 17.8 10 Oeste 32 Oeste 0 -- -- 62
2019-06-03 20:00:00 19.1 12 Oeste 31 Oeste 0 -- -- 59
2019-06-03 19:00:00 20.4 14 Oeste 32 Oeste 0 -- -- 60
2019-06-03 18:00:00 21.2 11 Oeste 31 Oeste 0 -- -- 62
2019-06-03 17:00:00 21.9 11 Sudoeste 29 Oeste 0 -- -- 57
2019-06-03 16:00:00 22.3 14 Oeste 29 Oeste 0 -- -- 58
2019-06-03 15:00:00 21.1 11 Oeste 28 Oeste 0 -- -- 62
2019-06-03 14:00:00 20.8 9 Oeste 19 Oeste 0 -- -- 62
2019-06-03 13:00:00 20.3 6 Sudoeste 21 Oeste 0 -- -- 65
2019-06-03 12:00:00 19.2 8 Sudoeste 18 Oeste 0 -- -- 67
2019-06-03 11:00:00 18.1 7 Sudoeste 17 Sur 0 -- -- 68
2019-06-03 10:00:00 16.6 6 Sudoeste 15 Sur 0 -- -- 67
2019-06-03 09:00:00 14.9 5 Sudoeste 10 Sur 0 -- -- 78
2019-06-03 08:00:00 12.1 3 Oeste 8 Oeste 0 -- -- 81
2019-06-03 07:00:00 11.3 0 Calma 7 Sur 0 -- -- 79
2019-06-03 06:00:00 11.5 4 Sur 8 Sur 0 -- -- 81
2019-06-03 05:00:00 11.2 0 Calma 3 Oeste 0 -- -- 81
2019-06-03 04:00:00 12.1 0 Calma 5 Este 0 -- -- 76
2019-06-03 03:00:00 12.2 5 Nordeste 8 Norte 0 -- -- 70
2019-06-03 02:00:00 14.2 3 Noroeste 16 Oeste 0 -- -- 57
2019-06-03 01:00:00 15.1 6 Oeste 13 Oeste 0 -- -- 55
2019-06-03 00:00:00 16.2 8 Oeste 14 Oeste 0 -- -- 53
2019-06-02 23:00:00 16.7 4 Noroeste 13 Oeste 0 -- -- 49
2019-06-02 22:00:00 18.1 4 Oeste 17 Oeste 0 -- -- 43
2019-06-02 21:00:00 19.9 7 Oeste 19 Oeste 0 -- -- 39
2019-06-02 20:00:00 21.8 10 Oeste 23 Oeste 0 -- -- 36
2019-06-02 19:00:00 23.9 10 Oeste 23 Oeste 0 -- -- 34
2019-06-02 18:00:00 23.5 10 Oeste 26 Oeste 0 -- -- 34
2019-06-02 17:00:00 24.1 15 Oeste 33 Oeste 0 -- -- 32
2019-06-02 16:00:00 25.6 14 Oeste 27 Oeste 0 -- -- 31
2019-06-02 15:00:00 25.6 9 Sudoeste 27 Oeste 0 -- -- 33
2019-06-02 14:00:00 25.1 12 Oeste 28 Oeste 0 -- -- 33
2019-06-02 13:00:00 24.2 13 Oeste 25 Oeste 0 -- -- 33
2019-06-02 12:00:00 24 10 Noroeste 17 Oeste 0 -- -- 34
2019-06-02 11:00:00 21.5 3 Sudeste 6 Sur 0 -- -- 39
2019-06-02 10:00:00 16.2 4 Sur 9 Sur 0 -- -- 58
2019-06-02 09:00:00 9.7 3 Sudoeste 6 Sur 0 -- -- 91
2019-06-02 08:00:00 5.8 6 Sur 9 Sur 0 -- -- 92
2019-06-02 07:00:00 4 5 Sudoeste 9 Sudoeste 0 -- -- 92
2019-06-02 06:00:00 4 0 Calma 5 Oeste 0 -- -- 90
2019-06-02 05:00:00 4.9 0 Calma 3 Este 0 -- -- 87
2019-06-02 04:00:00 6.6 0 Calma 5 Noroeste 0 -- -- 83
2019-06-02 03:00:00 8.8 2 Sur 9 Sudoeste 0 -- -- 79
2019-06-02 02:00:00 10 5 Sudoeste 6 Sur 0 -- -- 75
2019-06-02 01:00:00 10.5 3 Sur 7 Sudoeste 0 -- -- 67
2019-06-02 00:00:00 13.8 4 Sudoeste 12 Oeste 0 -- -- 52
2019-06-01 23:00:00 18.4 7 Noroeste 13 Oeste 0 -- -- 39
2019-06-01 22:00:00 20.1 5 Nordeste 19 Noroeste 0 -- -- 37
2019-06-01 21:00:00 25.7 11 Noroeste 20 Noroeste 0 -- -- 32
2019-06-01 20:00:00 27.9 12 Noroeste 21 Noroeste 0 -- -- 31
2019-06-01 19:00:00 29.1 12 Noroeste 23 Oeste 0 -- -- 28
2019-06-01 18:00:00 30.1 12 Oeste 27 Oeste 0 -- -- 22
2019-06-01 17:00:00 29.8 13 Oeste 28 Oeste 0 -- -- 24
2019-06-01 16:00:00 29.8 16 Oeste 34 Oeste 0 -- -- 25
2019-06-01 15:00:00 29.9 14 Oeste 31 Oeste 0 -- -- 26
2019-06-01 14:00:00 29.3 15 Oeste 29 Oeste 0 -- -- 27
2019-06-01 13:00:00 28.8 8 Oeste 13 Oeste 0 -- -- 33
2019-06-01 12:00:00 27.8 5 Sudeste 12 Sudeste 0 -- -- 37
2019-06-01 11:00:00 24.3 3 Sudeste 6 Sur 0 -- -- 47
2019-06-01 10:00:00 18.3 0 Calma 6 Sur 0 -- -- 68
2019-06-01 09:00:00 13.5 3 Sur 7 Sudoeste 0 -- -- 90
2019-06-01 08:00:00 9.2 0 Calma 8 Sudoeste 0 -- -- 91
2019-06-01 07:00:00 8.4 5 Sudoeste 8 Sudoeste 0 -- -- 91
2019-06-01 06:00:00 8 4 Sudoeste 8 Oeste 0 -- -- 89
2019-06-01 05:00:00 8.6 0 Calma 4 Oeste 0 -- -- 86
2019-06-01 04:00:00 10.5 3 Sudoeste 8 Sudoeste 0 -- -- 83
2019-06-01 03:00:00 11.2 3 Sudoeste 6 Sur 0 -- -- 78
2019-06-01 02:00:00 13.6 4 Sudoeste 9 Sur 0 -- -- 68
2019-06-01 01:00:00 14.5 6 Sudoeste 9 Sudoeste 0 -- -- 68
2019-06-01 00:00:00 16.3 5 Sudoeste 9 Sudoeste 0 -- -- 64
2019-05-31 23:00:00 17.9 2 Nordeste 7 Nordeste 0 -- -- 56
2019-05-31 22:00:00 22.9 2 Oeste 18 Oeste 0 -- -- 39
2019-05-31 21:00:00 27.1 8 Oeste 25 Oeste 0 -- -- 31
2019-05-31 20:00:00 29.5 12 Oeste 23 Oeste 0 -- -- 30
2019-05-31 19:00:00 31 7 Norte 23 Noroeste 0 -- -- 26
2019-05-31 18:00:00 32 2 Oeste 17 Oeste 0 -- -- 27
2019-05-31 17:00:00 30.8 2 Noroeste 17 Norte 0 -- -- 26
2019-05-31 16:00:00 30.3 3 Noroeste 19 Noroeste 0 -- -- 26
2019-05-31 15:00:00 29.9 6 Este 22 Este 0 -- -- 28
2019-05-31 14:00:00 29.3 10 Sudeste 24 Sudeste 0 -- -- 28
2019-05-31 13:00:00 28.3 15 Sudeste 26 Sudeste 0 -- -- 29
2019-05-31 12:00:00 27.1 12 Sudeste 25 Sudeste 0 -- -- 31
2019-05-31 11:00:00 25.1 13 Sudeste 21 Sudeste 0 -- -- 35
2019-05-31 10:00:00 21.9 9 Sudeste 15 Sudeste 0 -- -- 51
2019-05-31 09:00:00 14.6 2 Sudoeste 9 Sudoeste 0 -- -- 88
2019-05-31 08:00:00 9.7 2 Sudoeste 6 Sudoeste 0 -- -- 91
2019-05-31 07:00:00 8.3 0 Calma 3 Sudoeste 0 -- -- 89
2019-05-31 06:00:00 9 0 Calma 7 Oeste 0 -- -- 89
2019-05-31 05:00:00 9.7 3 Sudoeste 7 Sudoeste 0 -- -- 89
2019-05-31 04:00:00 10 0 Calma 6 Noroeste 0 -- -- 85
2019-05-31 03:00:00 11.2 0 Calma 4 Oeste 0 -- -- 78
2019-05-31 02:00:00 14.4 4 Sur 9 Sur 0 -- -- 69
2019-05-31 01:00:00 14.5 4 Sur 8 Sudoeste 0 -- -- 69
2019-05-31 00:00:00 16.7 6 Sudoeste 12 Oeste 0 -- -- 62
2019-05-30 23:00:00 18.2 4 Norte 10 Noroeste 0 -- -- 51
2019-05-30 22:00:00 22.9 5 Norte 10 Norte 0 -- -- 40
2019-05-30 21:00:00 27.5 8 Norte 16 Noroeste 0 -- -- 34
2019-05-30 20:00:00 28.7 12 Noroeste 19 Noroeste 0 -- -- 31
2019-05-30 19:00:00 29 9 Norte 17 Norte 0 -- -- 31
2019-05-30 18:00:00 29.1 11 Noroeste 22 Norte 0 -- -- 33
2019-05-30 17:00:00 29.2 0 Calma 14 Noroeste 0 -- -- 35
2019-05-30 16:00:00 28.3 3 Nordeste 16 Noroeste 0 -- -- 36
2019-05-30 15:00:00 27.3 6 Sudeste 21 Nordeste 0 -- -- 36
2019-05-30 14:00:00 26.2 6 Sudeste 18 Este 0 -- -- 38
2019-05-30 13:00:00 24.4 9 Sudeste 21 Sudeste 0 -- -- 39
2019-05-30 12:00:00 22.7 14 Sudeste 27 Sudeste 0 -- -- 40
2019-05-30 11:00:00 20.9 15 Sudeste 28 Sudeste 0 -- -- 42
2019-05-30 10:00:00 19 10 Sudeste 22 Sudeste 0 -- -- 48
2019-05-30 09:00:00 16.2 12 Sudeste 23 Sudeste 0 -- -- 57
2019-05-30 08:00:00 13.3 9 Sudeste 19 Sudeste 0 -- -- 65
2019-05-30 07:00:00 11 4 Sudeste 14 Sudeste 0 -- -- 73
2019-05-30 06:00:00 10.8 3 Nordeste 26 Sudeste 0 -- -- 73
2019-05-30 05:00:00 10.6 5 Sudeste 11 Sudeste 0 -- -- 87
2019-05-30 04:00:00 9.1 0 Calma 5 Sudeste 0 -- -- 90
2019-05-30 03:00:00 9.4 0 Calma -- -- 0 -- -- 88
2019-05-30 02:00:00 10.2 0 Calma -- -- 0 -- -- 83
2019-05-30 01:00:00 13.1 0 Calma 7 Sudoeste 0 -- -- 77
2019-05-30 00:00:00 15.1 2 Sudoeste 7 Sudoeste 0 -- -- 71
2019-05-29 23:00:00 16.6 4 Noroeste 11 Norte 0 -- -- 65
2019-05-29 22:00:00 19.7 5 Norte 19 Norte 0 -- -- 50
2019-05-29 21:00:00 23.6 11 Norte 21 Norte 0 -- -- 39
2019-05-29 20:00:00 25.2 13 Norte 23 Norte 0 -- -- 34
2019-05-29 19:00:00 25.8 13 Norte 23 Nordeste 0 -- -- 35
2019-05-29 18:00:00 25.7 7 Norte 19 Nordeste 0 -- -- 36
2019-05-29 17:00:00 25.7 0 Calma 11 Este 0 -- -- 38
2019-05-29 16:00:00 24.1 5 Sudeste 17 Sudeste 0 -- -- 39
2019-05-29 15:00:00 22.8 2 Nordeste 18 Sudeste 0 -- -- 41
2019-05-29 14:00:00 21.6 5 Este 18 Este 0 -- -- 43
2019-05-29 13:00:00 20 9 Este 22 Este 0 -- -- 44
2019-05-29 12:00:00 18 12 Este 22 Sudeste 0 -- -- 47
2019-05-29 11:00:00 15.9 12 Sudeste 27 Sudeste 0 -- -- 52
2019-05-29 10:00:00 13 14 Sudeste 23 Sudeste 0 -- -- 68
2019-05-29 09:00:00 7.7 0 Calma -- -- 0 -- -- 93
2019-05-29 08:00:00 3 0 Calma -- -- 0 -- -- 93
2019-05-29 07:00:00 1 0 Calma -- -- 0 -- -- 92
2019-05-29 06:00:00 2 0 Calma -- -- 0 -- -- 91
2019-05-29 05:00:00 3.4 0 Calma 3 Sudoeste 0 -- -- 89
2019-05-29 04:00:00 4.1 0 Calma -- -- 0 -- -- 87
2019-05-29 03:00:00 5.3 0 Calma 2 Sur 0 -- -- 83
2019-05-29 02:00:00 6.9 0 Calma 13 Norte 0 -- -- 77
2019-05-29 01:00:00 8.1 5 Norte 16 Noroeste 0 -- -- 73
2019-05-29 00:00:00 9.4 14 Noroeste 20 Noroeste 0 -- -- 68
2019-05-28 23:00:00 10.9 0 Calma 19 Norte 0 -- -- 56
2019-05-28 22:00:00 13.4 14 Norte 29 Norte 0 -- -- 49
2019-05-28 21:00:00 16.9 13 Norte 31 Norte 0 -- -- 41
2019-05-28 20:00:00 18.7 16 Norte 34 Norte 0 -- -- 39
2019-05-28 19:00:00 19.7 18 Norte 35 Norte 0 -- -- 39
2019-05-28 18:00:00 20 21 Norte 38 Norte 0 -- -- 37
2019-05-28 17:00:00 20 19 Norte 36 Noroeste 0 -- -- 39
2019-05-28 16:00:00 20 18 Norte 32 Norte 0 -- -- 40
2019-05-28 15:00:00 19.2 15 Norte 33 Norte 0 -- -- 43
2019-05-28 14:00:00 18 17 Norte 27 Norte 0 -- -- 45
2019-05-28 13:00:00 16.7 14 Noroeste 27 Noroeste 0 -- -- 49
2019-05-28 12:00:00 15.2 14 Norte 24 Norte 0 -- -- 53
2019-05-28 11:00:00 13 10 Noroeste 21 Norte 0 -- -- 61
2019-05-28 10:00:00 10.4 11 Noroeste 18 Noroeste 0 -- -- 73
2019-05-28 09:00:00 8.1 0 Calma 8 Sudoeste 0 -- -- 91
2019-05-28 08:00:00 5.3 5 Oeste 11 Noroeste 0 -- -- 92
2019-05-28 07:00:00 4.1 4 Noroeste 9 Noroeste 0 -- -- 90
2019-05-28 06:00:00 4.9 5 Noroeste 10 Oeste 0 -- -- 89
2019-05-28 05:00:00 5.4 6 Noroeste 14 Norte 0 -- -- 88
2019-05-28 04:00:00 7.1 6 Noroeste 13 Norte 0 -- -- 87
2019-05-28 03:00:00 7 8 Noroeste 17 Noroeste 0 -- -- 86
2019-05-28 02:00:00 7.5 8 Noroeste 20 Oeste 0 -- -- 82
2019-05-28 01:00:00 8.4 8 Noroeste 18 Noroeste 0 -- -- 72
2019-05-28 00:00:00 9.4 11 Noroeste 17 Norte 0 -- -- 58
2019-05-27 23:00:00 11.2 4 Norte 20 Noroeste 0 -- -- 49
2019-05-27 22:00:00 13.4 10 Noroeste 24 Norte 0 -- -- 46
2019-05-27 21:00:00 16.1 15 Norte 30 Norte 0 -- -- 44
2019-05-27 20:00:00 18.8 16 Norte 30 Norte 0 -- -- 46
2019-05-27 19:00:00 20.2 17 Norte 30 Norte 0 -- -- 45
2019-05-27 18:00:00 20.9 19 Noroeste 30 Norte 0 -- -- 45
2019-05-27 17:00:00 20.7 16 Norte 30 Noroeste 0 -- -- 44
2019-05-27 16:00:00 20.4 19 Norte 31 Noroeste 0 -- -- 48
2019-05-27 15:00:00 18.8 17 Norte 33 Noroeste 0 -- -- 56
2019-05-27 14:00:00 19.2 20 Norte 33 Norte 0 -- -- 57
2019-05-27 13:00:00 17.7 18 Norte 31 Norte 0 -- -- 65
2019-05-27 12:00:00 17.3 17 Norte 30 Noroeste 0 -- -- 67
2019-05-27 11:00:00 15.9 13 Norte 24 Norte 0 -- -- 71
2019-05-27 10:00:00 12.8 6 Nordeste 12 Noroeste 0 -- -- 93
2019-05-27 09:00:00 10 0 Calma 5 Norte 0 -- -- 93
2019-05-27 08:00:00 8.6 0 Calma 4 Este 0 -- -- 93
2019-05-27 07:00:00 6.7 0 Calma 6 Este 0 -- -- 92
2019-05-27 06:00:00 7.6 0 Calma 4 Sudoeste 0 -- -- 92
2019-05-27 05:00:00 9.1 2 Oeste 8 Noroeste 0 -- -- 91
2019-05-27 04:00:00 10 4 Oeste 10 Sur 0 -- -- 89
2019-05-27 03:00:00 11.3 0 Calma 12 Noroeste 0 -- -- 86
2019-05-27 02:00:00 12.2 3 Oeste 17 Noroeste 0 -- -- 82
2019-05-27 01:00:00 13.1 10 Noroeste 21 Norte 0 -- -- 81
2019-05-27 00:00:00 14.4 13 Norte 27 Norte 0 -- -- 77
2019-05-26 23:00:00 15.9 14 Norte 24 Norte 0 -- -- 70
2019-05-26 22:00:00 17.8 12 Norte 21 Norte 0 -- -- 58
2019-05-26 21:00:00 21.4 12 Norte 23 Norte 0 -- -- 46
2019-05-26 20:00:00 22.9 15 Norte 27 Norte 0 -- -- 40
2019-05-26 19:00:00 23.4 19 Norte 30 Noroeste 0 -- -- 36
2019-05-26 18:00:00 23.9 17 Norte 31 Noroeste 0 -- -- 36
2019-05-26 17:00:00 23.4 19 Norte 33 Noroeste 0 -- -- 36
2019-05-26 16:00:00 23.2 19 Norte 33 Norte 0 -- -- 38
2019-05-26 15:00:00 21.9 18 Noroeste 28 Noroeste 0 -- -- 42
2019-05-26 14:00:00 21.4 12 Noroeste 20 Noroeste 0 -- -- 44
2019-05-26 13:00:00 20.4 10 Norte 21 Norte 0 -- -- 51
2019-05-26 12:00:00 18.7 11 Norte 19 Norte 0 -- -- 56
2019-05-26 11:00:00 15.2 3 Norte 10 Norte 0 -- -- 69
2019-05-26 10:00:00 12.3 0 Calma 0 Calma 0 -- -- 91
2019-05-26 09:00:00 8.7 0 Calma 0 Calma 0 -- -- 94
2019-05-26 08:00:00 4.1 0 Calma 0 Calma 0 -- -- 94
2019-05-26 07:00:00 2 0 Calma -- -- 0 -- -- 93
2019-05-26 06:00:00 3.2 0 Calma 0 Calma 0 -- -- 92
2019-05-26 05:00:00 4.6 0 Calma 3 Sudeste 0 -- -- 90
2019-05-26 04:00:00 5.9 0 Calma 6 Sur 0 -- -- 88
2019-05-26 03:00:00 7.2 2 Sur 8 Oeste 0 -- -- 84
2019-05-26 02:00:00 8.8 3 Sudoeste 6 Oeste 0 -- -- 81
2019-05-26 01:00:00 10.3 0 Calma 12 Norte 0 -- -- 76
2019-05-26 00:00:00 11.2 9 Noroeste 12 Noroeste 0 -- -- 70
2019-05-25 23:00:00 13.3 0 Calma 26 Norte 0 -- -- 64
2019-05-25 22:00:00 14.9 16 Norte 26 Norte 0 -- -- 58
2019-05-25 21:00:00 18.5 16 Norte 32 Noroeste 0 -- -- 48
2019-05-25 20:00:00 20.7 17 Noroeste 28 Noroeste 0 -- -- 45
2019-05-25 19:00:00 21.7 18 Norte 30 Norte 0 -- -- 44
2019-05-25 18:00:00 21.7 16 Noroeste 34 Noroeste 0 -- -- 44
2019-05-25 17:00:00 21.7 19 Norte 38 Noroeste 0 -- -- 44
2019-05-25 16:00:00 21.7 21 Norte 34 Norte 0 -- -- 43
2019-05-25 15:00:00 20.2 15 Noroeste 33 Norte 0 -- -- 43
2019-05-25 14:00:00 19.1 15 Norte 26 Norte 0 -- -- 45
2019-05-25 13:00:00 17.7 10 Norte 25 Norte 0 -- -- 52
2019-05-25 12:00:00 15.4 10 Norte 22 Norte 0 -- -- 58
2019-05-25 11:00:00 12.9 8 Noroeste 16 Noroeste 0 -- -- 72
2019-05-25 10:00:00 10.7 5 Noroeste 11 Norte 0 -- -- 89
2019-05-25 09:00:00 8.7 4 Noroeste 9 Noroeste 0 -- -- 93
2019-05-25 08:00:00 4.8 3 Sudoeste 6 Sudoeste 0 -- -- 93
2019-05-25 07:00:00 3.8 0 Calma 7 Oeste 0 -- -- 93
2019-05-25 06:00:00 4.3 3 Sudoeste 6 Noroeste 0 -- -- 92
2019-05-25 05:00:00 5.5 4 Oeste 9 Norte 0 -- -- 92
2019-05-25 04:00:00 5.4 4 Oeste 9 Oeste 0 -- -- 90
2019-05-25 03:00:00 5.9 3 Sudoeste 10 Noroeste 0 -- -- 88
2019-05-25 02:00:00 7.5 8 Noroeste 13 Noroeste 0 -- -- 85
2019-05-25 01:00:00 8.4 6 Noroeste 12 Noroeste 0 -- -- 81
2019-05-25 00:00:00 9.2 3 Oeste 18 Norte 0 -- -- 78
2019-05-24 23:00:00 10.1 10 Norte 24 Norte 0 -- -- 74
2019-05-24 22:00:00 12.1 14 Norte 31 Norte 0 -- -- 64
2019-05-24 21:00:00 14.7 25 Norte 36 Norte 0 -- -- 54
2019-05-24 20:00:00 16 28 Norte 41 Norte 0 -- -- 50
2019-05-24 19:00:00 16.9 26 Norte 40 Norte 0 -- -- 49
2019-05-24 18:00:00 16.8 26 Norte 40 Norte 0 -- -- 50
2019-05-24 17:00:00 17.3 24 Norte 38 Norte 0 -- -- 49
2019-05-24 16:00:00 17.6 21 Norte 37 Norte 0 -- -- 47
2019-05-24 15:00:00 16.7 21 Norte 39 Noroeste 0 -- -- 49
2019-05-24 14:00:00 15.8 21 Norte 40 Norte 0 -- -- 52
2019-05-24 13:00:00 14.3 21 Norte 37 Norte 0 -- -- 56
2019-05-24 12:00:00 13.8 22 Norte 41 Noroeste 0 -- -- 60
2019-05-24 11:00:00 12 19 Norte 35 Norte 0 -- -- 66
2019-05-24 10:00:00 9.5 16 Norte 29 Noroeste 0 -- -- 80
2019-05-24 09:00:00 7.9 10 Noroeste 19 Noroeste 0 -- -- 93
2019-05-24 08:00:00 6.3 9 Noroeste 17 Noroeste 0 -- -- 93
2019-05-24 07:00:00 4.7 4 Noroeste 10 Oeste 0 -- -- 92
2019-05-24 06:00:00 5.4 5 Oeste 13 Oeste 0 -- -- 91
2019-05-24 05:00:00 6.3 5 Noroeste 19 Noroeste 0 -- -- 91
2019-05-24 04:00:00 6.7 12 Noroeste 19 Noroeste 0 -- -- 90
2019-05-24 03:00:00 7.1 10 Norte 19 Noroeste 0 -- -- 89
2019-05-24 02:00:00 7.4 5 Noroeste 14 Noroeste 0 -- -- 85
2019-05-24 01:00:00 8.4 8 Noroeste 19 Noroeste 0 -- -- 80
2019-05-24 00:00:00 9.6 12 Noroeste 18 Noroeste 0 -- -- 77
2019-05-23 23:00:00 11.1 10 Noroeste 25 Noroeste 0 -- -- 73
2019-05-23 22:00:00 12.7 15 Noroeste 28 Noroeste 0 -- -- 65
2019-05-23 21:00:00 14.6 19 Noroeste 29 Noroeste 0 -- -- 55
2019-05-23 20:00:00 16.3 18 Noroeste 31 Noroeste 0 -- -- 51
2019-05-23 19:00:00 19 20 Noroeste 32 Noroeste 0 -- -- 45
2019-05-23 18:00:00 19.9 15 Noroeste 30 Oeste 0 -- -- 45
2019-05-23 17:00:00 18.9 17 Norte 26 Norte 0 -- -- 47
2019-05-23 16:00:00 18.5 11 Norte 26 Norte 0 -- -- 57
2019-05-23 15:00:00 15.9 14 Norte 28 Norte 0 -- -- 68
2019-05-23 14:00:00 15.9 14 Noroeste 29 Norte 0 -- -- 67
2019-05-23 13:00:00 16.4 13 Norte 26 Norte 0 -- -- 68
2019-05-23 12:00:00 16 15 Norte 26 Noroeste 0 -- -- 62
2019-05-23 11:00:00 15.6 2 Noroeste 10 Norte 0 -- -- 66
2019-05-23 10:00:00 12.8 4 Norte 10 Norte 0 -- -- 91
2019-05-23 09:00:00 8.6 0 Calma 3 Sudoeste 0 -- -- 94
2019-05-23 08:00:00 5.8 0 Calma 3 Norte 0 -- -- 94
2019-05-23 07:00:00 5.8 0 Calma 4 Norte 0 -- -- 93
2019-05-23 06:00:00 5.7 0 Calma 2 Sur 0 -- -- 93
2019-05-23 05:00:00 6.4 0 Calma 3 Sudoeste 0 -- -- 92
2019-05-23 04:00:00 6.8 2 Sudoeste 8 Sudoeste 0 -- -- 91
2019-05-23 03:00:00 6.7 0 Calma -- -- 0 -- -- 89
2019-05-23 02:00:00 8.3 0 Calma 7 Sudoeste 0 -- -- 86
2019-05-23 01:00:00 10.2 4 Sudoeste 9 Sudoeste 0 -- -- 84
2019-05-23 00:00:00 10.9 0 Calma 6 Norte 0 -- -- 76
2019-05-22 23:00:00 13.9 3 Noroeste 13 Oeste 0 -- -- 70
2019-05-22 22:00:00 16.3 8 Noroeste 18 Noroeste 0 -- -- 66
2019-05-22 21:00:00 20.3 10 Noroeste 21 Oeste 0 -- -- 54
2019-05-22 20:00:00 22.6 10 Oeste 28 Oeste 0 -- -- 47
2019-05-22 19:00:00 23.7 12 Noroeste 21 Oeste 0 -- -- 44
2019-05-22 18:00:00 24 7 Oeste 20 Noroeste 0 -- -- 41
2019-05-22 17:00:00 24.5 0 Calma 14 Sudoeste 0 -- -- 39
2019-05-22 16:00:00 24.3 8 Sur 20 Sudeste 0 -- -- 36
2019-05-22 15:00:00 24.8 7 Sudeste 23 Sur 0 -- -- 37
2019-05-22 14:00:00 23.8 8 Sur 19 Sudeste 0 -- -- 39
2019-05-22 13:00:00 22.5 7 Este 21 Sudeste 0 -- -- 42
2019-05-22 12:00:00 21 9 Sudeste 19 Sudeste 0 -- -- 47
2019-05-22 11:00:00 18.4 6 Sudeste 15 Sudeste 0 -- -- 64
2019-05-22 10:00:00 13.2 0 Calma 5 Sur 0 -- -- 92
2019-05-22 09:00:00 8.3 0 Calma 5 Sudoeste 0 -- -- 94
2019-05-22 08:00:00 5.2 4 Sur 8 Sur 0 -- -- 94
2019-05-22 07:00:00 4.5 3 Sudoeste 6 Sudoeste 0 -- -- 93
2019-05-22 06:00:00 4.2 0 Calma 3 Norte 0 -- -- 92
2019-05-22 05:00:00 5.8 0 Calma 6 Sur 0 -- -- 91
2019-05-22 04:00:00 7.3 0 Calma 5 Sur 0 -- -- 90
2019-05-22 03:00:00 8.7 4 Sudoeste 7 Norte 0 -- -- 88
2019-05-22 02:00:00 9.9 4 Sudoeste 8 Sudoeste 0 -- -- 86
2019-05-22 01:00:00 10.6 5 Sudoeste 8 Oeste 0 -- -- 81
2019-05-22 00:00:00 12.4 4 Sudoeste 9 Noroeste 0 -- -- 76